Time;durP1;ratioP1;P1;durP2;ratioP2;P2;SDS_P1;SDS_P2;PMS_P1;PMS_P2;Temp;Humidity;BMP_temperature;BMP_pressure;BME280_temperature;BME280_humidity;BME280_pressure;Samples;Min_cycle;Max_cycle;Signal;HPM_P1;HPM_P2
2022/10/21 00:02:16;;;;;;;86.57;32.67;;;;;;;;;;4941337;29;20059;-67
2022/10/21 00:04:43;;;;;;;76.72;31.33;;;;;;;;;;4941842;29;20114;-68
2022/10/21 00:07:10;;;;;;;118.22;34.13;;;;;;;;;;4939506;29;20123;-67
2022/10/21 00:09:37;;;;;;;73.35;31.15;;;;;;;;;;4942214;29;20741;-68
2022/10/21 00:12:05;;;;;;;156.32;40.22;;;;;;;;;;4924547;29;20050;-68
2022/10/21 00:14:32;;;;;;;192.80;42.88;;;;;;;;;;4928023;29;20118;-68
2022/10/21 00:16:59;;;;;;;96.75;33.28;;;;;;;;;;4945026;29;20549;-68
2022/10/21 00:19:28;;;;;;;202.93;43.28;;;;;;;;;;4942791;29;20062;-68
2022/10/21 00:21:55;;;;;;;179.85;43.88;;;;;;;;;;4927326;29;20043;-68
2022/10/21 00:24:23;;;;;;;125.20;36.67;;;;;;;;;;4943006;29;20075;-68
2022/10/21 00:26:50;;;;;;;83.07;33.92;;;;;;;;;;4944915;29;20054;-67
2022/10/21 00:29:17;;;;;;;86.63;34.53;;;;;;;;;;4945127;29;20059;-68
2022/10/21 00:31:44;;;;;;;132.80;39.08;;;;;;;;;;4943777;29;20565;-67
2022/10/21 00:34:12;;;;;;;128.15;37.20;;;;;;;;;;4944244;29;20059;-68
2022/10/21 00:36:40;;;;;;;108.47;34.13;;;;;;;;;;4936512;29;20066;-68
2022/10/21 00:39:07;;;;;;;181.50;43.03;;;;;;;;;;4944454;29;20162;-68
2022/10/21 00:41:35;;;;;;;175.18;42.00;;;;;;;;;;4941878;29;20048;-67
2022/10/21 00:44:03;;;;;;;262.10;49.40;;;;;;;;;;4938481;29;20055;-68
2022/10/21 00:46:35;;;;;;;309.70;53.70;;;;;;;;;;4945972;29;20055;-68
2022/10/21 00:49:05;;;;;;;88.60;35.03;;;;;;;;;;4920939;29;20062;-68
2022/10/21 00:51:32;;;;;;;145.30;39.08;;;;;;;;;;4945451;29;20593;-67
2022/10/21 00:54:01;;;;;;;175.90;42.38;;;;;;;;;;4939671;29;20062;-67
2022/10/21 00:56:30;;;;;;;144.70;40.85;;;;;;;;;;4942619;29;20062;-68
2022/10/21 00:59:00;;;;;;;134.23;39.20;;;;;;;;;;4943895;29;20070;-68
2022/10/21 01:01:27;;;;;;;137.18;42.13;;;;;;;;;;4935066;29;20063;-68
2022/10/21 01:03:54;;;;;;;195.88;46.38;;;;;;;;;;4940091;29;20756;-68
2022/10/21 01:06:23;;;;;;;124.97;41.03;;;;;;;;;;4945610;29;20067;-68
2022/10/21 01:08:53;;;;;;;136.73;42.30;;;;;;;;;;4946178;29;20050;-68
2022/10/21 01:11:22;;;;;;;123.38;39.83;;;;;;;;;;4944689;29;20055;-68
2022/10/21 01:14:02;;;;;;;169.13;42.50;;;;;;;;;;4926928;29;20753;-68
2022/10/21 01:16:35;;;;;;;116.03;40.40;;;;;;;;;;4926218;29;20063;-68
2022/10/21 01:19:06;;;;;;;168.15;44.10;;;;;;;;;;4941946;29;20284;-68
2022/10/21 01:21:37;;;;;;;183.25;44.22;;;;;;;;;;4928578;29;20055;-68
2022/10/21 01:24:08;;;;;;;176.80;44.22;;;;;;;;;;4927294;29;20502;-68
2022/10/21 01:26:49;;;;;;;128.57;41.20;;;;;;;;;;4926496;29;20067;-68
2022/10/21 01:29:23;;;;;;;152.95;43.47;;;;;;;;;;4923996;29;20081;-68
2022/10/21 01:31:54;;;;;;;142.75;42.95;;;;;;;;;;4943681;29;20051;-67
2022/10/21 01:34:24;;;;;;;169.43;44.60;;;;;;;;;;4939954;28;20430;-68
2022/10/21 01:36:55;;;;;;;169.95;44.08;;;;;;;;;;4939925;29;20078;-68
2022/10/21 01:39:26;;;;;;;202.85;49.38;;;;;;;;;;4942875;29;20067;-67
2022/10/21 01:41:56;;;;;;;125.15;40.47;;;;;;;;;;4926550;29;20082;-68
2022/10/21 01:44:25;;;;;;;176.07;47.67;;;;;;;;;;4943347;29;20141;-68
2022/10/21 01:46:57;;;;;;;162.55;44.45;;;;;;;;;;4945197;29;20454;-68
2022/10/21 01:49:27;;;;;;;114.90;41.00;;;;;;;;;;4943665;29;20078;-68
2022/10/21 01:51:55;;;;;;;161.45;45.22;;;;;;;;;;4944216;29;20054;-68
2022/10/21 01:54:24;;;;;;;171.20;47.65;;;;;;;;;;4943404;29;20438;-68
2022/10/21 01:56:53;;;;;;;96.93;37.88;;;;;;;;;;4942952;29;20055;-68
2022/10/21 01:59:21;;;;;;;154.93;42.67;;;;;;;;;;4944389;29;20055;-68
2022/10/21 02:01:49;;;;;;;125.88;40.83;;;;;;;;;;4946752;29;20047;-68
2022/10/21 02:04:18;;;;;;;96.65;37.42;;;;;;;;;;4943867;28;20047;-68
2022/10/21 02:06:46;;;;;;;89.90;36.17;;;;;;;;;;4946078;29;20700;-68
2022/10/21 02:09:13;;;;;;;165.15;46.47;;;;;;;;;;4944156;29;20058;-68
2022/10/21 02:11:42;;;;;;;105.47;39.78;;;;;;;;;;4946053;29;20109;-68
2022/10/21 02:14:11;;;;;;;111.57;40.60;;;;;;;;;;4940107;29;20583;-68
2022/10/21 02:16:40;;;;;;;94.22;38.10;;;;;;;;;;4944856;29;20059;-68
2022/10/21 02:19:11;;;;;;;221.07;48.70;;;;;;;;;;4944777;29;20047;-68
2022/10/21 02:21:40;;;;;;;125.50;40.63;;;;;;;;;;4942189;29;20070;-68
2022/10/21 02:24:12;;;;;;;85.18;36.38;;;;;;;;;;4928555;29;20183;-68
2022/10/21 02:26:39;;;;;;;93.40;37.85;;;;;;;;;;4946073;29;20051;-68
2022/10/21 02:29:06;;;;;;;94.30;37.00;;;;;;;;;;4943839;29;20053;-68
2022/10/21 02:31:40;;;;;;;111.75;40.70;;;;;;;;;;4944268;29;20102;-68
2022/10/21 02:34:07;;;;;;;;;;;;;;;;;;4946605;29;20153;-68
2022/10/21 02:36:39;;;;;;;201.80;47.83;;;;;;;;;;4945904;29;19926;-68
2022/10/21 02:39:11;;;;;;;121.47;41.33;;;;;;;;;;4925276;29;20475;-68
2022/10/21 02:41:39;;;;;;;146.07;43.90;;;;;;;;;;4946398;29;20055;-68
2022/10/21 02:44:07;;;;;;;103.32;38.88;;;;;;;;;;4941486;28;20059;-68
2022/10/21 02:46:37;;;;;;;122.03;40.95;;;;;;;;;;4945197;29;20387;-68
2022/10/21 02:49:04;;;;;;;92.30;38.28;;;;;;;;;;4945347;29;20571;-67
2022/10/21 02:51:32;;;;;;;113.47;42.22;;;;;;;;;;4947300;29;20051;-67
2022/10/21 02:53:59;;;;;;;100.50;39.80;;;;;;;;;;4946460;29;20059;-67
2022/10/21 02:56:28;;;;;;;113.65;41.20;;;;;;;;;;4929467;29;20066;-66
2022/10/21 02:58:55;;;;;;;91.45;37.85;;;;;;;;;;4945424;29;20676;-66
2022/10/21 03:01:22;;;;;;;110.95;40.83;;;;;;;;;;4946628;29;20059;-66
2022/10/21 03:03:49;;;;;;;133.45;41.58;;;;;;;;;;4944016;28;20063;-67
2022/10/21 03:06:17;;;;;;;109.68;38.83;;;;;;;;;;4945637;29;20062;-66
2022/10/21 03:08:44;;;;;;;106.00;37.60;;;;;;;;;;4947199;29;20039;-66
2022/10/21 03:11:11;;;;;;;165.10;41.90;;;;;;;;;;4922765;29;20387;-67
2022/10/21 03:13:40;;;;;;;98.88;38.13;;;;;;;;;;4943299;29;20054;-66
2022/10/21 03:16:07;;;;;;;117.97;40.95;;;;;;;;;;4926537;29;20062;-66
2022/10/21 03:18:34;;;;;;;130.45;42.60;;;;;;;;;;4945792;29;20063;-66
2022/10/21 03:21:02;;;;;;;121.68;41.30;;;;;;;;;;4943797;29;20058;-67
2022/10/21 03:23:29;;;;;;;165.35;44.67;;;;;;;;;;4939509;29;20856;-67
2022/10/21 03:25:56;;;;;;;133.40;43.88;;;;;;;;;;4940504;29;20062;-66
2022/10/21 03:28:23;;;;;;;186.40;47.85;;;;;;;;;;4946739;29;20110;-66
2022/10/21 03:30:52;;;;;;;253.38;50.38;;;;;;;;;;4926876;29;20062;-66
2022/10/21 03:33:19;;;;;;;131.25;44.33;;;;;;;;;;4945445;29;20047;-66
2022/10/21 03:35:46;;;;;;;311.05;58.20;;;;;;;;;;4945634;29;20490;-67
2022/10/21 03:38:13;;;;;;;350.25;60.90;;;;;;;;;;4946529;29;20047;-67
2022/10/21 03:40:41;;;;;;;305.27;60.70;;;;;;;;;;4945935;29;20154;-67
2022/10/21 03:43:08;;;;;;;210.35;53.00;;;;;;;;;;4946945;29;20387;-67
2022/10/21 03:45:35;;;;;;;308.15;60.15;;;;;;;;;;4946757;29;20063;-66
2022/10/21 03:48:04;;;;;;;166.88;48.88;;;;;;;;;;4938320;29;20058;-66
2022/10/21 03:50:31;;;;;;;172.70;50.58;;;;;;;;;;4944635;29;20102;-67
2022/10/21 03:52:59;;;;;;;156.13;50.17;;;;;;;;;;4946826;29;20054;-67
2022/10/21 03:55:26;;;;;;;172.25;49.00;;;;;;;;;;4946978;29;20059;-67
2022/10/21 03:57:54;;;;;;;156.50;45.50;;;;;;;;;;4940330;29;20503;-67
2022/10/21 04:00:21;;;;;;;165.55;48.78;;;;;;;;;;4941441;29;20055;-67
2022/10/21 04:02:48;;;;;;;176.23;48.58;;;;;;;;;;4931966;29;20055;-68
2022/10/21 04:05:17;;;;;;;158.13;48.22;;;;;;;;;;4949249;29;20517;-67
2022/10/21 04:07:44;;;;;;;137.85;44.55;;;;;;;;;;4943330;29;20051;-68
2022/10/21 04:10:11;;;;;;;173.55;47.63;;;;;;;;;;4929903;29;20047;-67
2022/10/21 04:12:39;;;;;;;140.32;44.05;;;;;;;;;;4950223;29;20062;-67
2022/10/21 04:15:07;;;;;;;215.43;49.75;;;;;;;;;;4943221;29;20058;-67
2022/10/21 04:17:34;;;;;;;161.20;45.00;;;;;;;;;;4949665;29;20047;-67
2022/10/21 04:20:01;;;;;;;147.25;44.40;;;;;;;;;;4927795;29;20051;-67
2022/10/21 04:22:30;;;;;;;220.35;49.13;;;;;;;;;;4947297;29;20705;-67
2022/10/21 04:24:57;;;;;;;140.77;43.10;;;;;;;;;;4941849;29;20043;-68
2022/10/21 04:27:24;;;;;;;140.73;43.05;;;;;;;;;;4942760;29;20409;-67
2022/10/21 04:29:51;;;;;;;142.43;41.35;;;;;;;;;;4942303;29;20052;-67
2022/10/21 04:32:19;;;;;;;145.60;43.15;;;;;;;;;;4944832;29;20154;-68
2022/10/21 04:34:46;;;;;;;118.63;40.38;;;;;;;;;;4943111;29;20098;-68
2022/10/21 04:37:13;;;;;;;165.80;45.10;;;;;;;;;;4949474;29;20644;-67
2022/10/21 04:39:42;;;;;;;209.07;46.75;;;;;;;;;;4939355;29;20059;-68
2022/10/21 04:42:09;;;;;;;151.32;41.35;;;;;;;;;;4947270;29;20447;-67
2022/10/21 04:44:38;;;;;;;179.02;44.78;;;;;;;;;;4942992;29;20051;-67
2022/10/21 04:47:05;;;;;;;133.45;42.83;;;;;;;;;;4930812;29;20134;-67
2022/10/21 04:49:32;;;;;;;124.80;40.03;;;;;;;;;;4947907;29;20074;-68
2022/10/21 04:51:59;;;;;;;260.48;50.75;;;;;;;;;;4930867;29;20051;-67
2022/10/21 04:54:27;;;;;;;126.53;40.95;;;;;;;;;;4949054;29;20113;-68
2022/10/21 04:56:55;;;;;;;150.43;42.08;;;;;;;;;;4946111;29;20051;-68
2022/10/21 04:59:22;;;;;;;105.10;39.40;;;;;;;;;;4946229;29;20505;-68
2022/10/21 05:01:50;;;;;;;136.48;42.40;;;;;;;;;;4945648;29;20062;-67
2022/10/21 05:04:17;;;;;;;123.03;40.60;;;;;;;;;;4948189;28;20712;-67
2022/10/21 05:06:44;;;;;;;135.38;43.13;;;;;;;;;;4947231;29;20070;-68
2022/10/21 05:09:11;;;;;;;114.88;40.15;;;;;;;;;;4946583;28;20427;-67
2022/10/21 05:11:38;;;;;;;133.05;42.95;;;;;;;;;;4948308;29;20055;-67
2022/10/21 05:14:07;;;;;;;247.38;48.45;;;;;;;;;;4946754;29;20062;-67
2022/10/21 05:16:34;;;;;;;325.48;55.22;;;;;;;;;;4948777;29;20058;-67
2022/10/21 05:19:01;;;;;;;132.23;41.33;;;;;;;;;;4947002;29;20062;-68
2022/10/21 05:21:29;;;;;;;115.80;39.75;;;;;;;;;;4945437;29;20079;-67
2022/10/21 05:23:56;;;;;;;130.77;42.13;;;;;;;;;;4938976;29;20053;-68
2022/10/21 05:26:24;;;;;;;139.43;43.13;;;;;;;;;;4926538;29;20830;-68
2022/10/21 05:28:51;;;;;;;153.80;43.55;;;;;;;;;;4937449;29;20055;-68
2022/10/21 05:31:19;;;;;;;130.80;42.88;;;;;;;;;;4939741;29;20039;-68
2022/10/21 05:33:47;;;;;;;125.80;41.63;;;;;;;;;;4940289;29;20106;-68
2022/10/21 05:36:14;;;;;;;137.23;44.55;;;;;;;;;;4941064;29;20051;-68
2022/10/21 05:38:41;;;;;;;126.38;43.17;;;;;;;;;;4939850;29;20043;-68
2022/10/21 05:41:09;;;;;;;142.90;43.42;;;;;;;;;;4946781;29;20047;-67
2022/10/21 05:43:36;;;;;;;143.00;45.28;;;;;;;;;;4945806;29;20580;-68
2022/10/21 05:46:04;;;;;;;116.22;41.75;;;;;;;;;;4924573;29;20063;-68
2022/10/21 05:48:33;;;;;;;169.25;45.00;;;;;;;;;;4944605;29;20615;-68
2022/10/21 05:51:00;;;;;;;114.65;41.78;;;;;;;;;;4922459;29;20051;-68
2022/10/21 05:53:27;;;;;;;145.05;45.38;;;;;;;;;;4941229;29;20613;-68
2022/10/21 05:55:55;;;;;;;209.65;48.55;;;;;;;;;;4947835;29;20055;-68
2022/10/21 05:58:23;;;;;;;230.25;50.50;;;;;;;;;;4944247;29;20074;-67
2022/10/21 06:00:50;;;;;;;254.73;50.17;;;;;;;;;;4942023;29;20434;-67
2022/10/21 06:03:17;;;;;;;285.88;52.75;;;;;;;;;;4946706;28;20043;-67
2022/10/21 06:05:46;;;;;;;150.77;43.45;;;;;;;;;;4940251;29;21491;-68
2022/10/21 06:08:13;;;;;;;168.45;43.20;;;;;;;;;;4945842;29;20494;-68
2022/10/21 06:10:40;;;;;;;169.38;44.40;;;;;;;;;;4945609;29;20054;-68
2022/10/21 06:13:08;;;;;;;376.70;55.63;;;;;;;;;;4946104;29;20047;-68
2022/10/21 06:15:36;;;;;;;210.13;45.75;;;;;;;;;;4944612;29;20520;-68
2022/10/21 06:18:03;;;;;;;423.48;54.78;;;;;;;;;;4937622;29;20414;-68
2022/10/21 06:20:31;;;;;;;440.65;56.97;;;;;;;;;;4940247;28;20055;-69
2022/10/21 06:23:00;;;;;;;308.45;48.78;;;;;;;;;;4940482;29;20052;-68
2022/10/21 06:25:28;;;;;;;231.82;47.40;;;;;;;;;;4939757;29;20051;-68
2022/10/21 06:27:55;;;;;;;241.45;49.83;;;;;;;;;;4941251;29;20062;-68
2022/10/21 06:30:22;;;;;;;186.32;48.13;;;;;;;;;;4935736;29;20519;-68
2022/10/21 06:32:50;;;;;;;301.88;49.25;;;;;;;;;;4925132;29;20051;-68
2022/10/21 06:35:17;;;;;;;164.48;45.78;;;;;;;;;;4941118;29;20055;-68
2022/10/21 06:37:44;;;;;;;204.63;47.80;;;;;;;;;;4943093;29;20058;-68
2022/10/21 06:40:13;;;;;;;169.98;48.55;;;;;;;;;;4936740;29;20086;-68
2022/10/21 06:42:40;;;;;;;210.60;50.15;;;;;;;;;;4943820;29;20043;-68
2022/10/21 06:45:08;;;;;;;226.73;53.70;;;;;;;;;;4941911;29;20093;-68
2022/10/21 06:47:35;;;;;;;390.05;64.57;;;;;;;;;;4928162;29;20055;-68
2022/10/21 06:50:02;;;;;;;210.55;52.75;;;;;;;;;;4944517;29;20513;-68
2022/10/21 06:52:30;;;;;;;200.85;51.13;;;;;;;;;;4945008;29;20072;-68
2022/10/21 06:54:57;;;;;;;180.95;49.50;;;;;;;;;;4927368;29;20063;-69
2022/10/21 06:57:27;;;;;;;169.75;48.20;;;;;;;;;;4923529;29;20067;-68
2022/10/21 06:59:54;;;;;;;179.38;48.58;;;;;;;;;;4940655;29;20051;-68
2022/10/21 07:02:23;;;;;;;315.60;56.00;;;;;;;;;;4945828;29;20066;-68
2022/10/21 07:04:51;;;;;;;159.23;45.88;;;;;;;;;;4923908;29;20133;-68
2022/10/21 07:07:18;;;;;;;285.95;54.83;;;;;;;;;;4943036;29;20043;-68
2022/10/21 07:09:46;;;;;;;181.30;47.83;;;;;;;;;;4944822;29;20051;-68
2022/10/21 07:12:13;;;;;;;221.05;49.08;;;;;;;;;;4943295;29;20624;-68
2022/10/21 07:14:42;;;;;;;157.93;45.17;;;;;;;;;;4929313;29;20051;-68
2022/10/21 07:17:09;;;;;;;194.60;48.28;;;;;;;;;;4928504;29;20047;-68
2022/10/21 07:19:36;;;;;;;190.25;49.05;;;;;;;;;;4945331;29;20059;-68
2022/10/21 07:22:04;;;;;;;141.15;43.42;;;;;;;;;;4943904;29;20676;-68
2022/10/21 07:24:31;;;;;;;166.15;43.55;;;;;;;;;;4942653;29;20051;-68
2022/10/21 07:26:58;;;;;;;145.07;44.20;;;;;;;;;;4942855;29;20572;-68
2022/10/21 07:29:25;;;;;;;131.77;43.22;;;;;;;;;;4919943;29;20051;-68
2022/10/21 07:31:54;;;;;;;135.38;42.33;;;;;;;;;;4942824;28;20066;-68
2022/10/21 07:34:21;;;;;;;136.70;43.28;;;;;;;;;;4940457;29;20065;-68
2022/10/21 07:36:51;;;;;;;113.55;41.78;;;;;;;;;;4944856;29;20055;-68
2022/10/21 07:39:19;;;;;;;122.82;40.97;;;;;;;;;;4943134;29;20051;-68
2022/10/21 07:41:48;;;;;;;146.73;45.10;;;;;;;;;;4940754;29;20681;-69
2022/10/21 07:44:16;;;;;;;120.03;40.17;;;;;;;;;;4940810;29;20521;-68
2022/10/21 07:46:43;;;;;;;167.25;43.95;;;;;;;;;;4944763;29;20414;-68
2022/10/21 07:49:12;;;;;;;96.90;36.78;;;;;;;;;;4939692;29;20140;-68
2022/10/21 07:51:40;;;;;;;84.72;33.85;;;;;;;;;;4945003;29;20044;-69
2022/10/21 07:54:07;;;;;;;99.25;36.58;;;;;;;;;;4940761;29;20040;-68
2022/10/21 07:56:35;;;;;;;78.32;33.78;;;;;;;;;;4939212;29;20051;-68
2022/10/21 07:59:03;;;;;;;102.05;36.97;;;;;;;;;;4930018;29;20483;-69
2022/10/21 08:01:31;;;;;;;72.07;30.75;;;;;;;;;;4945243;29;20052;-68
2022/10/21 08:03:59;;;;;;;74.43;30.77;;;;;;;;;;4947478;28;20050;-68
2022/10/21 08:06:27;;;;;;;66.55;29.08;;;;;;;;;;4945168;29;20191;-69
2022/10/21 08:08:56;;;;;;;93.15;34.47;;;;;;;;;;4944935;29;20550;-69
2022/10/21 08:11:24;;;;;;;108.70;34.10;;;;;;;;;;4944147;29;20055;-68
2022/10/21 08:13:51;;;;;;;59.83;28.85;;;;;;;;;;4942333;29;20090;-69
2022/10/21 08:16:18;;;;;;;61.78;27.55;;;;;;;;;;4944501;29;20051;-68
2022/10/21 08:18:45;;;;;;;56.55;27.67;;;;;;;;;;4944920;29;20289;-68
2022/10/21 08:21:13;;;;;;;59.22;26.95;;;;;;;;;;4929645;29;20059;-68
2022/10/21 08:23:42;;;;;;;60.58;25.65;;;;;;;;;;4941840;29;20058;-69
2022/10/21 08:26:11;;;;;;;59.72;27.10;;;;;;;;;;4945287;29;20070;-68
2022/10/21 08:28:38;;;;;;;186.57;39.03;;;;;;;;;;4945548;29;20537;-68
2022/10/21 08:31:06;;;;;;;63.35;29.13;;;;;;;;;;4943135;29;20050;-68
2022/10/21 08:33:33;;;;;;;67.72;27.17;;;;;;;;;;4924964;29;20055;-68
2022/10/21 08:36:05;;;;;;;52.10;24.60;;;;;;;;;;4941184;29;20060;-69
2022/10/21 08:38:32;;;;;;;45.47;22.63;;;;;;;;;;4943184;29;20055;-68
2022/10/21 08:41:01;;;;;;;59.05;24.05;;;;;;;;;;4927107;29;20043;-69
2022/10/21 08:43:30;;;;;;;43.63;21.55;;;;;;;;;;4944152;28;20559;-68
2022/10/21 08:45:59;;;;;;;70.75;27.33;;;;;;;;;;4945096;29;20084;-68
2022/10/21 08:48:30;;;;;;;45.58;22.48;;;;;;;;;;4943286;29;20484;-68
2022/10/21 08:50:58;;;;;;;79.05;26.52;;;;;;;;;;4943686;29;20683;-69
2022/10/21 08:53:28;;;;;;;48.03;22.38;;;;;;;;;;4927354;29;20060;-68
2022/10/21 08:55:59;;;;;;;41.10;21.50;;;;;;;;;;4946702;29;20413;-68
2022/10/21 08:58:27;;;;;;;46.40;23.08;;;;;;;;;;4943474;29;20062;-69
2022/10/21 09:00:55;;;;;;;41.10;19.63;;;;;;;;;;4940512;29;20054;-69
2022/10/21 09:03:26;;;;;;;53.10;23.35;;;;;;;;;;4926019;29;20086;-69
2022/10/21 09:05:58;;;;;;;43.67;21.33;;;;;;;;;;4944560;29;20091;-68
2022/10/21 09:08:31;;;;;;;36.25;20.25;;;;;;;;;;4944128;29;20192;-68
2022/10/21 09:11:03;;;;;;;29.45;17.85;;;;;;;;;;4942122;29;20046;-68
2022/10/21 09:13:39;;;;;;;28.67;16.40;;;;;;;;;;4927312;29;20059;-68
2022/10/21 09:16:09;;;;;;;32.40;16.83;;;;;;;;;;4941214;29;20061;-68
2022/10/21 09:18:42;;;;;;;35.40;17.17;;;;;;;;;;4927514;29;20765;-68
2022/10/21 09:21:13;;;;;;;25.92;15.40;;;;;;;;;;4943021;29;20189;-68
2022/10/21 09:23:45;;;;;;;29.67;15.85;;;;;;;;;;4945819;29;20055;-69
2022/10/21 09:26:18;;;;;;;31.00;16.48;;;;;;;;;;4945940;29;20047;-68
2022/10/21 09:28:45;;;;;;;;;;;;;;;;;;4944589;29;20051;-68
2022/10/21 09:31:16;;;;;;;34.83;15.75;;;;;;;;;;4927497;29;19990;-68
2022/10/21 09:33:45;;;;;;;26.38;14.70;;;;;;;;;;4922832;29;20170;-68
2022/10/21 09:36:14;;;;;;;28.10;14.52;;;;;;;;;;4944568;29;20059;-68
2022/10/21 09:38:44;;;;;;;36.78;16.42;;;;;;;;;;4941987;29;20078;-68
2022/10/21 09:41:14;;;;;;;23.50;13.93;;;;;;;;;;4945318;29;20383;-69
2022/10/21 09:43:41;;;;;;;28.00;14.20;;;;;;;;;;4928217;29;20054;-68
2022/10/21 09:46:11;;;;;;;22.40;13.73;;;;;;;;;;4945074;29;20406;-69
2022/10/21 09:48:42;;;;;;;22.90;14.15;;;;;;;;;;4945649;29;20054;-68
2022/10/21 09:51:14;;;;;;;22.90;14.82;;;;;;;;;;4945500;29;20509;-68
2022/10/21 09:53:43;;;;;;;34.03;16.50;;;;;;;;;;4944479;28;20051;-68
2022/10/21 09:56:13;;;;;;;29.45;15.98;;;;;;;;;;4943273;29;20051;-68
2022/10/21 09:58:50;;;;;;;27.77;15.90;;;;;;;;;;4944669;29;20063;-69
2022/10/21 10:01:18;;;;;;;29.67;15.77;;;;;;;;;;4927075;29;20050;-69
2022/10/21 10:03:48;;;;;;;23.38;14.68;;;;;;;;;;4946935;28;20054;-69
2022/10/21 10:06:31;;;;;;;27.73;14.77;;;;;;;;;;4947230;29;20055;-69
2022/10/21 10:09:06;;;;;;;32.72;14.80;;;;;;;;;;4925785;29;20051;-69
2022/10/21 10:11:33;;;;;;;19.75;13.40;;;;;;;;;;4946084;29;20047;-69
2022/10/21 10:14:17;;;;;;;31.85;14.82;;;;;;;;;;4928141;29;20051;-69
2022/10/21 10:16:44;;;;;;;25.08;13.55;;;;;;;;;;4945099;29;20043;-69
2022/10/21 10:19:16;;;;;;;23.90;13.02;;;;;;;;;;4945860;29;20168;-69
2022/10/21 10:21:43;;;;;;;21.75;12.40;;;;;;;;;;4946907;29;20549;-69
2022/10/21 10:24:17;;;;;;;23.55;13.68;;;;;;;;;;4944758;29;20051;-70
2022/10/21 10:26:44;;;;;;;;;;;;;;;;;;4925200;29;20051;-70
2022/10/21 10:29:21;;;;;;;22.80;12.52;;;;;;;;;;4944539;29;19965;-69
2022/10/21 10:31:50;;;;;;;24.73;13.57;;;;;;;;;;4929505;29;20126;-70
2022/10/21 10:34:21;;;;;;;29.58;14.88;;;;;;;;;;4946319;29;20051;-69
2022/10/21 10:36:49;;;;;;;23.90;13.43;;;;;;;;;;4945212;29;20055;-70
2022/10/21 10:39:18;;;;;;;19.45;11.45;;;;;;;;;;4944125;29;20077;-70
2022/10/21 10:41:47;;;;;;;23.63;12.18;;;;;;;;;;4945877;29;20417;-69
2022/10/21 10:44:22;;;;;;;30.52;12.80;;;;;;;;;;4941875;29;20081;-70
2022/10/21 10:46:54;;;;;;;21.30;11.07;;;;;;;;;;4947080;29;20047;-69
2022/10/21 10:49:22;;;;;;;19.17;10.20;;;;;;;;;;4926180;29;20063;-67
2022/10/21 10:52:03;;;;;;;23.05;10.75;;;;;;;;;;4946874;29;20043;-67
2022/10/21 10:54:31;;;;;;;18.33;10.65;;;;;;;;;;4927924;29;20054;-67
2022/10/21 10:57:00;;;;;;;25.42;12.07;;;;;;;;;;4929261;29;20055;-67
2022/10/21 10:59:31;;;;;;;24.77;12.55;;;;;;;;;;4945153;29;20059;-67
2022/10/21 11:02:03;;;;;;;21.35;11.88;;;;;;;;;;4947055;29;20103;-67
2022/10/21 11:04:34;;;;;;;23.00;11.85;;;;;;;;;;4944936;28;20102;-67
2022/10/21 11:07:04;;;;;;;22.17;10.70;;;;;;;;;;4926915;29;20055;-67
2022/10/21 11:09:32;;;;;;;18.65;10.98;;;;;;;;;;4927689;29;20058;-67
2022/10/21 11:12:01;;;;;;;24.95;12.52;;;;;;;;;;4943001;29;20158;-67
2022/10/21 11:14:29;;;;;;;20.20;11.18;;;;;;;;;;4944150;29;20074;-67
2022/10/21 11:17:04;;;;;;;19.50;10.50;;;;;;;;;;4944821;29;20055;-67
2022/10/21 11:19:35;;;;;;;16.08;10.63;;;;;;;;;;4928555;29;20058;-67
2022/10/21 11:22:07;;;;;;;19.05;10.18;;;;;;;;;;4945481;29;20837;-67
2022/10/21 11:24:50;;;;;;;18.02;10.35;;;;;;;;;;4943968;29;20062;-67
2022/10/21 11:27:21;;;;;;;20.00;9.65;;;;;;;;;;4924374;29;20067;-67
2022/10/21 11:29:53;;;;;;;19.63;9.82;;;;;;;;;;4944833;29;20058;-67
2022/10/21 11:32:26;;;;;;;16.85;9.93;;;;;;;;;;4943688;29;20114;-67
2022/10/21 11:35:14;;;;;;;20.42;9.70;;;;;;;;;;4945956;29;20056;-67
2022/10/21 11:37:57;;;;;;;16.88;9.48;;;;;;;;;;4938473;29;20051;-67
2022/10/21 11:40:27;;;;;;;15.57;9.07;;;;;;;;;;4941809;29;20142;-67
2022/10/21 11:42:55;;;;;;;18.27;9.18;;;;;;;;;;4925255;29;20412;-67
2022/10/21 11:45:40;;;;;;;19.45;9.70;;;;;;;;;;4944495;29;20406;-67
2022/10/21 11:48:14;;;;;;;13.25;9.13;;;;;;;;;;4943192;29;20126;-67
2022/10/21 11:50:45;;;;;;;19.30;10.18;;;;;;;;;;4940236;29;20135;-67
2022/10/21 11:53:26;;;;;;;17.95;9.60;;;;;;;;;;4944536;29;20050;-67
2022/10/21 11:55:59;;;;;;;18.23;8.73;;;;;;;;;;4945414;29;20058;-70
2022/10/21 11:58:32;;;;;;;15.05;8.70;;;;;;;;;;4943832;29;20058;-70
2022/10/21 12:01:07;;;;;;;17.30;9.32;;;;;;;;;;4942227;29;20055;-70
2022/10/21 12:03:41;;;;;;;14.93;8.57;;;;;;;;;;4940564;29;20051;-70
2022/10/21 12:06:17;;;;;;;15.10;8.55;;;;;;;;;;4944629;29;20053;-70
2022/10/21 12:08:51;;;;;;;16.48;8.10;;;;;;;;;;4945287;29;20052;-70
2022/10/21 12:11:22;;;;;;;14.90;8.48;;;;;;;;;;4946271;29;20051;-70
2022/10/21 12:13:51;;;;;;;19.13;8.27;;;;;;;;;;4946409;29;20055;-70
2022/10/21 12:16:19;;;;;;;15.75;8.38;;;;;;;;;;4944891;29;20063;-70
2022/10/21 12:18:50;;;;;;;13.80;7.78;;;;;;;;;;4947823;28;20054;-70
2022/10/21 12:21:19;;;;;;;20.05;8.27;;;;;;;;;;4947098;29;20107;-70
2022/10/21 12:23:51;;;;;;;16.83;8.10;;;;;;;;;;4950586;29;20057;-70
2022/10/21 12:26:21;;;;;;;12.52;7.72;;;;;;;;;;4947769;29;20419;-70
2022/10/21 12:28:52;;;;;;;12.68;7.97;;;;;;;;;;4949135;29;20078;-70
2022/10/21 12:31:27;;;;;;;14.27;7.70;;;;;;;;;;4942006;29;20054;-70
2022/10/21 12:33:54;;;;;;;11.60;6.82;;;;;;;;;;4947083;29;20059;-67
2022/10/21 12:36:37;;;;;;;15.05;7.60;;;;;;;;;;4948370;29;20051;-67
2022/10/21 12:39:06;;;;;;;15.77;7.40;;;;;;;;;;4930772;29;20137;-67
2022/10/21 12:41:35;;;;;;;13.65;7.35;;;;;;;;;;4947116;29;20048;-67
2022/10/21 12:44:05;;;;;;;17.10;6.85;;;;;;;;;;4944496;29;20055;-67
2022/10/21 12:46:38;;;;;;;13.88;7.10;;;;;;;;;;4947034;29;20055;-68
2022/10/21 12:49:06;;;;;;;12.35;6.43;;;;;;;;;;4947890;29;20043;-68
2022/10/21 12:51:35;;;;;;;14.68;6.80;;;;;;;;;;4945403;29;20078;-68
2022/10/21 12:54:08;;;;;;;13.20;6.93;;;;;;;;;;4947974;29;20413;-68
2022/10/21 12:56:36;;;;;;;15.70;6.75;;;;;;;;;;4930964;29;20091;-68
2022/10/21 12:59:05;;;;;;;12.65;6.63;;;;;;;;;;4948880;29;20633;-68
2022/10/21 13:01:41;;;;;;;12.27;6.47;;;;;;;;;;4948369;29;20051;-68
2022/10/21 13:04:23;;;;;;;13.15;5.68;;;;;;;;;;4945080;28;20106;-68
2022/10/21 13:06:52;;;;;;;13.60;5.78;;;;;;;;;;4946273;29;20059;-67
2022/10/21 13:09:38;;;;;;;14.60;6.53;;;;;;;;;;4930478;29;20062;-68
2022/10/21 13:12:14;;;;;;;15.25;6.60;;;;;;;;;;4928547;29;20039;-68
2022/10/21 13:14:42;;;;;;;13.57;6.30;;;;;;;;;;4947863;29;20066;-68
2022/10/21 13:17:26;;;;;;;13.90;7.25;;;;;;;;;;4926120;29;20048;-68
2022/10/21 13:19:54;;;;;;;14.55;5.93;;;;;;;;;;4947923;29;20055;-68
2022/10/21 13:22:22;;;;;;;13.52;6.95;;;;;;;;;;4947607;29;20395;-68
2022/10/21 13:24:51;;;;;;;11.52;6.15;;;;;;;;;;4943108;29;20054;-68
2022/10/21 13:27:27;;;;;;;10.88;6.30;;;;;;;;;;4930304;29;20162;-68
2022/10/21 13:29:54;;;;;;;11.85;6.28;;;;;;;;;;4941410;28;20089;-68
2022/10/21 13:32:24;;;;;;;11.95;6.53;;;;;;;;;;4944040;29;20055;-68
2022/10/21 13:34:59;;;;;;;16.00;6.32;;;;;;;;;;4941042;29;20056;-68
2022/10/21 13:37:28;;;;;;;12.60;6.35;;;;;;;;;;4928560;29;20051;-68
2022/10/21 13:39:58;;;;;;;19.33;6.72;;;;;;;;;;4945836;29;20106;-68
2022/10/21 13:42:26;;;;;;;11.38;6.80;;;;;;;;;;4945325;29;20066;-68
2022/10/21 13:44:56;;;;;;;19.38;6.68;;;;;;;;;;4948460;29;20538;-68
2022/10/21 13:47:29;;;;;;;16.17;7.57;;;;;;;;;;4929789;29;20062;-69
2022/10/21 13:49:57;;;;;;;17.77;6.93;;;;;;;;;;4947116;29;20050;-69
2022/10/21 13:52:27;;;;;;;13.15;7.22;;;;;;;;;;4930610;29;20061;-68
2022/10/21 13:54:59;;;;;;;10.70;6.22;;;;;;;;;;4941763;29;20079;-67
2022/10/21 13:57:30;;;;;;;14.70;7.07;;;;;;;;;;4947054;29;20069;-68
2022/10/21 14:00:01;;;;;;;11.55;7.13;;;;;;;;;;4932477;29;20063;-68
2022/10/21 14:02:29;;;;;;;20.02;7.10;;;;;;;;;;4947613;29;20067;-68
2022/10/21 14:04:56;;;;;;;13.73;6.68;;;;;;;;;;4945504;28;20047;-66
2022/10/21 14:07:23;;;;;;;12.05;6.53;;;;;;;;;;4945672;29;20066;-67
2022/10/21 14:09:52;;;;;;;13.70;6.30;;;;;;;;;;4940901;29;20450;-66
2022/10/21 14:12:23;;;;;;;12.88;6.35;;;;;;;;;;4932181;29;20605;-66
2022/10/21 14:14:51;;;;;;;15.90;6.50;;;;;;;;;;4932717;29;20690;-66
2022/10/21 14:17:19;;;;;;;15.25;6.35;;;;;;;;;;4946605;29;20442;-67
2022/10/21 14:19:48;;;;;;;15.30;6.57;;;;;;;;;;4946733;29;20478;-66
2022/10/21 14:22:18;;;;;;;14.68;6.95;;;;;;;;;;4942504;29;20051;-66
2022/10/21 14:24:47;;;;;;;16.58;6.75;;;;;;;;;;4944695;29;20054;-68
2022/10/21 14:27:15;;;;;;;17.17;7.05;;;;;;;;;;4944790;29;20058;-66